Buoy 41936

sailwx.info

Track history (hours):
 
Tides and Currents Weather Stations Pressure Air Temp Water Temp Dewpoint Dewpoint Depression Visibility Wind Speed Wind Dir Waves Ship Positions

Drifting buoy 41936

Last reported at 2014-Sep-01 17:00 UTC. Time now 2014-Sep-01 18:49 UTC.
Position N 30°20' W 066°33'.

Barometer 1021.1 mb
Water temperature 28.1 ° C

Date/timePositionNaut miles runAvg speedWind from/ knotsBaromVisibWave heightAir tempDewpointWater temp
2014-Sep-01 17:00N 30°20' W 066°33'1 1.0 1021.1 28.1
2014-Sep-01 16:00N 30°21' W 066°33'1 1.4 1021.6 28.0
2014-Sep-01 15:00N 30°20' W 066°34'0 0.0 1021.9 27.9
2014-Sep-01 12:00N 30°20' W 066°34'1 0.8 1021.9 27.5
2014-Sep-01 11:00N 30°21' W 066°34'1 0.6 1021.7 27.5
2014-Sep-01 10:00N 30°21' W 066°35'0 0.0 1021.3 27.5
2014-Sep-01 09:00N 30°21' W 066°35'1 0.7 1020.7 27.5
2014-Sep-01 08:00N 30°22' W 066°35'1 0.4 1020.5 27.5
2014-Sep-01 06:00N 30°21' W 066°35'1 0.3 1020.8 27.6
2014-Sep-01 02:00N 30°20' W 066°36'0 0.2 1021.7 27.7
2014-Sep-01 01:00N 30°20' W 066°36'0 0.1 1021.6 27.7
2014-Aug-31 22:00N 30°20' W 066°36'0 0.1 1020.4 28.3
2014-Aug-31 20:00N 30°20' W 066°36'0 0.3 1020.3 29.3
2014-Aug-31 19:00N 30°20' W 066°36'2 0.6 1020.9 29.6
2014-Aug-31 16:00N 30°22' W 066°36'0 0.1 1022.2 29.5
2014-Aug-31 15:00N 30°22' W 066°36'0 0.0 1022.7 28.6
2014-Aug-31 14:00N 30°22' W 066°36'1 1.1 1022.7 27.9
2014-Aug-31 13:00N 30°22' W 066°37'0 0.0 1022.4 27.5
2014-Aug-31 11:00N 30°22' W 066°37'1 0.7 1022.1 27.3
2014-Aug-31 10:00N 30°22' W 066°38'0 0.0 1021.6 27.3
2014-Aug-31 09:00N 30°22' W 066°38'1 0.2 1021.0 27.4
2014-Aug-31 06:00N 30°22' W 066°38'1 0.4 1020.8 27.4
2014-Aug-31 03:00N 30°21' W 066°39'0 0.4 1021.0 27.6
2014-Aug-31 02:00N 30°22' W 066°39'1 0.5 1021.2 27.6
2014-Aug-31 01:00N 30°21' W 066°39'1 0.3 1020.9 27.6
2014-Aug-30 22:00N 30°21' W 066°38'1 0.5 1020.3 27.8
2014-Aug-30 20:00N 30°22' W 066°38'0 0.2 1020.1 27.9
2014-Aug-30 19:00N 30°22' W 066°39'1 1.3 1020.4 27.9
2014-Aug-30 18:00N 30°23' W 066°38'0 0.0 1021.0 28.0
2014-Aug-30 15:00N 30°23' W 066°38'1 0.6 1022.1 27.6
2014-Aug-30 14:00N 30°23' W 066°39'0 0.0 1022.1 27.4
2014-Aug-30 13:00N 30°23' W 066°39'1 0.5 1022.1 27.3
2014-Aug-30 11:00N 30°24' W 066°40'1 0.7 1021.3 27.3
2014-Aug-30 10:00N 30°24' W 066°41'0 0.3 1020.9 27.3
2014-Aug-30 09:00N 30°24' W 066°41'0 0.1 1020.6 27.3
2014-Aug-30 06:00N 30°24' W 066°41'1 0.2 1020.5 27.3
2014-Aug-30 02:00N 30°23' W 066°41'1 1.3 1020.6 27.4
2014-Aug-30 01:00N 30°24' W 066°42'0 0.0 1020.2 27.5
2014-Aug-30 00:00N 30°24' W 066°42'1 0.5 1020.0 27.6
2014-Aug-29 21:00N 30°23' W 066°40'1 0.9 1019.2 27.9
2014-Aug-29 20:00N 30°24' W 066°40'0 0.2 1019.2 28.0
2014-Aug-29 18:00N 30°24' W 066°40'0 0.0 1019.7 27.9
2014-Aug-29 17:00N 30°24' W 066°40'1 0.6 1020.0 27.8
2014-Aug-29 15:00N 30°25' W 066°40'0 0.4 1019.7 27.5
2014-Aug-29 14:00N 30°25' W 066°40'2 0.9 1019.6 27.4
2014-Aug-29 12:00N 30°26' W 066°42'1 0.5 1019.2 27.3
2014-Aug-29 10:00N 30°26' W 066°43'1 0.4 1018.4 27.2
2014-Aug-29 08:00N 30°25' W 066°44'0 0.0 1018.0 27.2
2014-Aug-29 07:00N 30°25' W 066°44'1 0.3 1017.9 27.2
2014-Aug-29 03:00N 30°24' W 066°43'2 1.1 1018.3 27.3
2014-Aug-29 01:00N 30°26' W 066°42'1 0.1 1018.2 27.3
2014-Aug-28 18:00N 30°27' W 066°42'2 0.7 1017.6 27.3
2014-Aug-28 15:00N 30°28' W 066°44'2 0.5 1017.9 27.2
2014-Aug-28 10:00N 30°28' W 066°47'1 0.7 1016.6 27.2
2014-Aug-28 09:00N 30°28' W 066°48'0 0.0 1016.0 27.2
2014-Aug-28 08:00N 30°28' W 066°48'0 0.0 1016.0 27.2
2014-Aug-28 07:00N 30°28' W 066°48'0 0.0 1016.4 27.2
2014-Aug-28 06:00N 30°28' W 066°48'1 0.2 1016.5 27.2
2014-Aug-28 03:00N 30°28' W 066°48'0 0.0 1016.5 27.2
2014-Aug-28 02:00N 30°28' W 066°48'1 1.4 1016.5 27.2
2014-Aug-28 01:00N 30°29' W 066°50'1 0.2 1016.1 27.2
2014-Aug-27 21:00N 30°29' W 066°51'1 0.6 1015.7 27.3
2014-Aug-27 20:00N 30°28' W 066°51'2 1.0 1015.4 27.3
2014-Aug-27 18:00N 30°27' W 066°53'0 0.0 1016.2 27.3
2014-Aug-27 16:00N 30°27' W 066°53'1 0.7 1016.5 27.3
2014-Aug-27 14:00N 30°27' W 066°54'0 0.0 1015.7 27.3
2014-Aug-27 13:00N 30°27' W 066°54'0 0.2 1015.8 27.3
2014-Aug-27 11:00N 30°27' W 066°54'0 0.4 1015.4 27.3
2014-Aug-27 10:00N 30°27' W 066°54'1 0.9 1014.6 27.3
2014-Aug-27 09:00N 30°27' W 066°55'0 0.0 1014.1 27.3
2014-Aug-27 07:00N 30°27' W 066°55'3 0.7 1013.6 27.3
2014-Aug-27 02:00N 30°26' W 066°59'0 0.4 1014.0 27.3
2014-Aug-27 01:00N 30°26' W 066°59'0 0.0 1013.6 27.3
2014-Aug-27 00:00N 30°26' W 066°59'2 0.9 1013.0 27.3
2014-Aug-26 22:00N 30°25' W 067°01'2 0.4 1012.3 27.3
2014-Aug-26 18:00N 30°23' W 067°01'0 0.0 1014.2 27.2
2014-Aug-26 16:00N 30°23' W 067°01'0 0.3 1014.5 27.3
2014-Aug-26 15:00N 30°23' W 067°01'0 0.1 1014.6 27.4
2014-Aug-26 11:00N 30°23' W 067°00'0 0.2 1012.7 27.4
2014-Aug-26 10:00N 30°23' W 067°00'0 0.2 1012.4 27.4
2014-Aug-26 08:00N 30°24' W 067°00'1 0.9 1012.5 27.4
2014-Aug-26 07:00N 30°24' W 067°01'1 0.2 1012.8 27.4
2014-Aug-26 02:00N 30°24' W 067°00'1 1.0 1011.3 27.5
2014-Aug-26 01:00N 30°24' W 067°01'1 1.4 1010.9 27.5
2014-Aug-26 00:00N 30°24' W 067°03'0 0.0 1010.1 27.5
2014-Aug-25 23:00N 30°24' W 067°03'1 0.7 1008.7 27.5
2014-Aug-25 22:00N 30°24' W 067°02'0 0.1 1009.2 27.5
2014-Aug-25 21:00N 30°24' W 067°02'1 0.4 1009.1 27.5
2014-Aug-25 19:00N 30°23' W 067°03'1 1.2 1010.2 27.5
2014-Aug-25 18:00N 30°23' W 067°04'0 0.1 1009.7 27.5
2014-Aug-25 15:00N 30°23' W 067°04'0 0.3 1009.8 27.5
2014-Aug-25 14:00N 30°23' W 067°04'2 0.6 1009.1 27.5
2014-Aug-25 11:00N 30°21' W 067°04'0 0.4 1008.9 27.5
2014-Aug-25 10:00N 30°21' W 067°03'1 0.7 1009.5 27.6
2014-Aug-25 09:00N 30°20' W 067°03'3 1.4 1009.6 27.6
2014-Aug-25 07:00N 30°20' W 067°00'1 0.2 1010.1 27.7
2014-Aug-25 02:00N 30°20' W 066°60'4 0.5 1012.6 27.8
2014-Aug-24 19:00N 30°24' W 067°01'0 0.0 1011.6 28.0
2014-Aug-24 17:00N 30°24' W 067°01'0 0.0 1012.5 28.0
2014-Aug-24 16:00N 30°24' W 067°01'0 0.3 1012.5 28.0
2014-Aug-24 15:00N 30°24' W 067°02'0 0.0 1012.7 27.9
2014-Aug-24 14:00N 30°24' W 067°02'2 1.8 1012.2 27.9
2014-Aug-24 13:00N 30°23' W 067°03'1 0.3 1012.1 27.8
2014-Aug-24 11:00N 30°23' W 067°03'1 1.2 1012.2 27.8
2014-Aug-24 10:00N 30°22' W 067°02'0 0.0 1011.7 27.8
2014-Aug-24 09:00N 30°22' W 067°02'0 0.0 1011.7 27.8
2014-Aug-24 08:00N 30°22' W 067°02'1 0.5 1011.7 27.8
2014-Aug-24 07:00N 30°22' W 067°02'0 0.0 1011.6 27.8
2014-Aug-24 06:00N 30°22' W 067°02'1 0.5 1012.1 27.8
2014-Aug-24 03:00N 30°22' W 067°00'1 1.4 1013.0 27.9
2014-Aug-24 02:00N 30°23' W 067°00'1 1.1 1013.5 27.9
2014-Aug-24 01:00N 30°24' W 067°01'0 0.0 1012.9 27.9
2014-Aug-24 00:00N 30°24' W 067°01'1 0.4 1012.9 27.9
2014-Aug-23 21:00N 30°26' W 067°00'1 1.2 1012.8 27.9
2014-Aug-23 20:00N 30°27' W 067°01'3 1.1 1012.9 28.0
2014-Aug-23 17:00N 30°29' W 067°04'1 0.3 1014.7 27.9
2014-Aug-23 15:00N 30°28' W 067°03'0 0.4 1014.9 27.8
2014-Aug-23 14:00N 30°28' W 067°03'2 0.5 1014.6 27.8
2014-Aug-23 11:00N 30°28' W 067°05'0 0.4 1014.5 27.8
2014-Aug-23 10:00N 30°27' W 067°05'0 0.0 1013.8 27.8
2014-Aug-23 09:00N 30°27' W 067°05'0 0.5 1013.6 27.8
2014-Aug-23 08:00N 30°28' W 067°05'1 0.5 1013.4 27.8
2014-Aug-23 06:00N 30°28' W 067°04'2 0.4 1014.2 27.8
2014-Aug-23 02:00N 30°29' W 067°04'2 2.2 1016.6 27.9
2014-Aug-23 01:00N 30°32' W 067°04'0 0.0 1016.7 27.9
2014-Aug-22 23:00N 30°32' W 067°04'2 0.6 1016.6 28.0
2014-Aug-22 20:00N 30°33' W 067°05'1 0.5 1017.1 28.1
2014-Aug-22 19:00N 30°33' W 067°06'   1017.7 28.1
Track history (hours):
 
Tides and Currents Weather Stations Pressure Air Temp Water Temp Dewpoint Dewpoint Depression Visibility Wind Speed Wind Dir Waves Ship Positions

Drifting buoy 41936

Last reported at 2014-Sep-01 17:00 UTC. Time now 2014-Sep-01 18:49 UTC.
Position N 30°20' W 066°33'.

Barometer 1021.1 mb
Water temperature 28.1 ° C

Date/timePositionNaut miles runAvg speedWind from/ knotsBaromVisibWave heightAir tempDewpointWater temp
2014-Sep-01 17:00N 30°20' W 066°33'1 1.0 1021.1 28.1
2014-Sep-01 16:00N 30°21' W 066°33'1 1.4 1021.6 28.0
2014-Sep-01 15:00N 30°20' W 066°34'0 0.0 1021.9 27.9
2014-Sep-01 12:00N 30°20' W 066°34'1 0.8 1021.9 27.5
2014-Sep-01 11:00N 30°21' W 066°34'1 0.6 1021.7 27.5
2014-Sep-01 10:00N 30°21' W 066°35'0 0.0 1021.3 27.5
2014-Sep-01 09:00N 30°21' W 066°35'1 0.7 1020.7 27.5
2014-Sep-01 08:00N 30°22' W 066°35'1 0.4 1020.5 27.5
2014-Sep-01 06:00N 30°21' W 066°35'1 0.3 1020.8 27.6
2014-Sep-01 02:00N 30°20' W 066°36'0 0.2 1021.7 27.7
2014-Sep-01 01:00N 30°20' W 066°36'0 0.1 1021.6 27.7
2014-Aug-31 22:00N 30°20' W 066°36'0 0.1 1020.4 28.3
2014-Aug-31 20:00N 30°20' W 066°36'0 0.3 1020.3 29.3
2014-Aug-31 19:00N 30°20' W 066°36'2 0.6 1020.9 29.6
2014-Aug-31 16:00N 30°22' W 066°36'0 0.1 1022.2 29.5
2014-Aug-31 15:00N 30°22' W 066°36'0 0.0 1022.7 28.6
2014-Aug-31 14:00N 30°22' W 066°36'1 1.1 1022.7 27.9
2014-Aug-31 13:00N 30°22' W 066°37'0 0.0 1022.4 27.5
2014-Aug-31 11:00N 30°22' W 066°37'1 0.7 1022.1 27.3
2014-Aug-31 10:00N 30°22' W 066°38'0 0.0 1021.6 27.3
2014-Aug-31 09:00N 30°22' W 066°38'1 0.2 1021.0 27.4
2014-Aug-31 06:00N 30°22' W 066°38'1 0.4 1020.8 27.4
2014-Aug-31 03:00N 30°21' W 066°39'0 0.4 1021.0 27.6
2014-Aug-31 02:00N 30°22' W 066°39'1 0.5 1021.2 27.6
2014-Aug-31 01:00N 30°21' W 066°39'1 0.3 1020.9 27.6
2014-Aug-30 22:00N 30°21' W 066°38'1 0.5 1020.3 27.8
2014-Aug-30 20:00N 30°22' W 066°38'0 0.2 1020.1 27.9
2014-Aug-30 19:00N 30°22' W 066°39'1 1.3 1020.4 27.9
2014-Aug-30 18:00N 30°23' W 066°38'0 0.0 1021.0 28.0
2014-Aug-30 15:00N 30°23' W 066°38'1 0.6 1022.1 27.6
2014-Aug-30 14:00N 30°23' W 066°39'0 0.0 1022.1 27.4
2014-Aug-30 13:00N 30°23' W 066°39'1 0.5 1022.1 27.3
2014-Aug-30 11:00N 30°24' W 066°40'1 0.7 1021.3 27.3
2014-Aug-30 10:00N 30°24' W 066°41'0 0.3 1020.9 27.3
2014-Aug-30 09:00N 30°24' W 066°41'0 0.1 1020.6 27.3
2014-Aug-30 06:00N 30°24' W 066°41'1 0.2 1020.5 27.3
2014-Aug-30 02:00N 30°23' W 066°41'1 1.3 1020.6 27.4
2014-Aug-30 01:00N 30°24' W 066°42'0 0.0 1020.2 27.5
2014-Aug-30 00:00N 30°24' W 066°42'1 0.5 1020.0 27.6
2014-Aug-29 21:00N 30°23' W 066°40'1 0.9 1019.2 27.9
2014-Aug-29 20:00N 30°24' W 066°40'0 0.2 1019.2 28.0
2014-Aug-29 18:00N 30°24' W 066°40'0 0.0 1019.7 27.9
2014-Aug-29 17:00N 30°24' W 066°40'1 0.6 1020.0 27.8
2014-Aug-29 15:00N 30°25' W 066°40'0 0.4 1019.7 27.5
2014-Aug-29 14:00N 30°25' W 066°40'2 0.9 1019.6 27.4
2014-Aug-29 12:00N 30°26' W 066°42'1 0.5 1019.2 27.3
2014-Aug-29 10:00N 30°26' W 066°43'1 0.4 1018.4 27.2
2014-Aug-29 08:00N 30°25' W 066°44'0 0.0 1018.0 27.2
2014-Aug-29 07:00N 30°25' W 066°44'1 0.3 1017.9 27.2
2014-Aug-29 03:00N 30°24' W 066°43'2 1.1 1018.3 27.3
2014-Aug-29 01:00N 30°26' W 066°42'1 0.1 1018.2 27.3
2014-Aug-28 18:00N 30°27' W 066°42'2 0.7 1017.6 27.3
2014-Aug-28 15:00N 30°28' W 066°44'2 0.5 1017.9 27.2
2014-Aug-28 10:00N 30°28' W 066°47'1 0.7 1016.6 27.2
2014-Aug-28 09:00N 30°28' W 066°48'0 0.0 1016.0 27.2
2014-Aug-28 08:00N 30°28' W 066°48'0 0.0 1016.0 27.2
2014-Aug-28 07:00N 30°28' W 066°48'0 0.0 1016.4 27.2
2014-Aug-28 06:00N 30°28' W 066°48'1 0.2 1016.5 27.2
2014-Aug-28 03:00N 30°28' W 066°48'0 0.0 1016.5 27.2
2014-Aug-28 02:00N 30°28' W 066°48'1 1.4 1016.5 27.2
2014-Aug-28 01:00N 30°29' W 066°50'1 0.2 1016.1 27.2
2014-Aug-27 21:00N 30°29' W 066°51'1 0.6 1015.7 27.3
2014-Aug-27 20:00N 30°28' W 066°51'2 1.0 1015.4 27.3
2014-Aug-27 18:00N 30°27' W 066°53'0 0.0 1016.2 27.3
2014-Aug-27 16:00N 30°27' W 066°53'1 0.7 1016.5 27.3
2014-Aug-27 14:00N 30°27' W 066°54'0 0.0 1015.7 27.3
2014-Aug-27 13:00N 30°27' W 066°54'0 0.2 1015.8 27.3
2014-Aug-27 11:00N 30°27' W 066°54'0 0.4 1015.4 27.3
2014-Aug-27 10:00N 30°27' W 066°54'1 0.9 1014.6 27.3
2014-Aug-27 09:00N 30°27' W 066°55'0 0.0 1014.1 27.3
2014-Aug-27 07:00N 30°27' W 066°55'3 0.7 1013.6 27.3
2014-Aug-27 02:00N 30°26' W 066°59'0 0.4 1014.0 27.3
2014-Aug-27 01:00N 30°26' W 066°59'0 0.0 1013.6 27.3
2014-Aug-27 00:00N 30°26' W 066°59'2 0.9 1013.0 27.3
2014-Aug-26 22:00N 30°25' W 067°01'2 0.4 1012.3 27.3
2014-Aug-26 18:00N 30°23' W 067°01'0 0.0 1014.2 27.2
2014-Aug-26 16:00N 30°23' W 067°01'0 0.3 1014.5 27.3
2014-Aug-26 15:00N 30°23' W 067°01'0 0.1 1014.6 27.4
2014-Aug-26 11:00N 30°23' W 067°00'0 0.2 1012.7 27.4
2014-Aug-26 10:00N 30°23' W 067°00'0 0.2 1012.4 27.4
2014-Aug-26 08:00N 30°24' W 067°00'1 0.9 1012.5 27.4
2014-Aug-26 07:00N 30°24' W 067°01'1 0.2 1012.8 27.4
2014-Aug-26 02:00N 30°24' W 067°00'1 1.0 1011.3 27.5
2014-Aug-26 01:00N 30°24' W 067°01'1 1.4 1010.9 27.5
2014-Aug-26 00:00N 30°24' W 067°03'0 0.0 1010.1 27.5
2014-Aug-25 23:00N 30°24' W 067°03'1 0.7 1008.7 27.5
2014-Aug-25 22:00N 30°24' W 067°02'0 0.1 1009.2 27.5
2014-Aug-25 21:00N 30°24' W 067°02'1 0.4 1009.1 27.5
2014-Aug-25 19:00N 30°23' W 067°03'1 1.2 1010.2 27.5
2014-Aug-25 18:00N 30°23' W 067°04'0 0.1 1009.7 27.5
2014-Aug-25 15:00N 30°23' W 067°04'0 0.3 1009.8 27.5
2014-Aug-25 14:00N 30°23' W 067°04'2 0.6 1009.1 27.5
2014-Aug-25 11:00N 30°21' W 067°04'0 0.4 1008.9 27.5
2014-Aug-25 10:00N 30°21' W 067°03'1 0.7 1009.5 27.6
2014-Aug-25 09:00N 30°20' W 067°03'3 1.4 1009.6 27.6
2014-Aug-25 07:00N 30°20' W 067°00'1 0.2 1010.1 27.7
2014-Aug-25 02:00N 30°20' W 066°60'4 0.5 1012.6 27.8
2014-Aug-24 19:00N 30°24' W 067°01'0 0.0 1011.6 28.0
2014-Aug-24 17:00N 30°24' W 067°01'0 0.0 1012.5 28.0
2014-Aug-24 16:00N 30°24' W 067°01'0 0.3 1012.5 28.0
2014-Aug-24 15:00N 30°24' W 067°02'0 0.0 1012.7 27.9
2014-Aug-24 14:00N 30°24' W 067°02'2 1.8 1012.2 27.9
2014-Aug-24 13:00N 30°23' W 067°03'1 0.3 1012.1 27.8
2014-Aug-24 11:00N 30°23' W 067°03'1 1.2 1012.2 27.8
2014-Aug-24 10:00N 30°22' W 067°02'0 0.0 1011.7 27.8
2014-Aug-24 09:00N 30°22' W 067°02'0 0.0 1011.7 27.8
2014-Aug-24 08:00N 30°22' W 067°02'1 0.5 1011.7 27.8
2014-Aug-24 07:00N 30°22' W 067°02'0 0.0 1011.6 27.8
2014-Aug-24 06:00N 30°22' W 067°02'1 0.5 1012.1 27.8
2014-Aug-24 03:00N 30°22' W 067°00'1 1.4 1013.0 27.9
2014-Aug-24 02:00N 30°23' W 067°00'1 1.1 1013.5 27.9
2014-Aug-24 01:00N 30°24' W 067°01'0 0.0 1012.9 27.9
2014-Aug-24 00:00N 30°24' W 067°01'1 0.4 1012.9 27.9
2014-Aug-23 21:00N 30°26' W 067°00'1 1.2 1012.8 27.9
2014-Aug-23 20:00N 30°27' W 067°01'3 1.1 1012.9 28.0
2014-Aug-23 17:00N 30°29' W 067°04'1 0.3 1014.7 27.9
2014-Aug-23 15:00N 30°28' W 067°03'0 0.4 1014.9 27.8
2014-Aug-23 14:00N 30°28' W 067°03'2 0.5 1014.6 27.8
2014-Aug-23 11:00N 30°28' W 067°05'0 0.4 1014.5 27.8
2014-Aug-23 10:00N 30°27' W 067°05'0 0.0 1013.8 27.8
2014-Aug-23 09:00N 30°27' W 067°05'0 0.5 1013.6 27.8
2014-Aug-23 08:00N 30°28' W 067°05'1 0.5 1013.4 27.8
2014-Aug-23 06:00N 30°28' W 067°04'2 0.4 1014.2 27.8
2014-Aug-23 02:00N 30°29' W 067°04'2 2.2 1016.6 27.9
2014-Aug-23 01:00N 30°32' W 067°04'0 0.0 1016.7 27.9
2014-Aug-22 23:00N 30°32' W 067°04'2 0.6 1016.6 28.0
2014-Aug-22 20:00N 30°33' W 067°05'1 0.5 1017.1 28.1
2014-Aug-22 19:00N 30°33' W 067°06'   1017.7 28.1

Dump ship's entire track history